LOWI/INN METAR and TAF weather

Enter ICAO airport designator
Station Type Date Time Source
LOWI METAR 2022/08/12 15:20 UTC NOAA

LOWI 121520Z 07015KT 040V100 9999 SCT070 SCT100 21/11 Q1016 NOSIG


Station Type Date Time Source
LOWI Decoded METAR 2022/08/12 15:20 UTC NOAA

Innsbruck-Flughafen, Austria (LOWI) 47-16N 011-21E 593M
Aug 12, 2022 - 11:20 AM EDT / 2022.08.12 1520 UTC
Wind: from the ENE (070 degrees) at 17 MPH (15 KT) (direction variable):0
Visibility: greater than 7 mile(s):0
Sky conditions: partly cloudy
Temperature: 69 F (21 C)
Dew Point: 51 F (11 C)
Relative Humidity: 52%
Pressure (altimeter): 30.00 in. Hg (1016 hPa)
ob: LOWI 121520Z 07015KT 040V100 9999 SCT070 SCT100 21/11 Q1016 NOSIG
cycle: 15

Station Type Date Time Source
LOWI TAF 2022/08/12 12:21 UTC NOAA

TAF LOWI 121115Z 1212/1312 10010KT 9999 SCT070 TX24/1212Z TN11/1304Z
TEMPO 1213/1218 08018G28KT -SHRA SCT060CB
BECMG 1218/1220 VRB02KT
BECMG 1308/1310 08008KT

Example: see airport list